sensor_id;sensor_type;location;lat;lon;timestamp;temperature;humidity
4425;DHT22;2225;53.568;13.266;2023-05-10T00:01:28;15.90;60.60
4425;DHT22;2225;53.568;13.266;2023-05-10T00:03:55;15.90;60.70
4425;DHT22;2225;53.568;13.266;2023-05-10T00:06:22;15.90;60.80
4425;DHT22;2225;53.568;13.266;2023-05-10T00:08:49;15.90;61.20
4425;DHT22;2225;53.568;13.266;2023-05-10T00:11:15;15.90;61.30
4425;DHT22;2225;53.568;13.266;2023-05-10T00:13:42;15.80;61.30
4425;DHT22;2225;53.568;13.266;2023-05-10T00:16:09;15.80;61.60
4425;DHT22;2225;53.568;13.266;2023-05-10T00:18:36;15.80;61.60
4425;DHT22;2225;53.568;13.266;2023-05-10T00:21:04;15.80;61.90
4425;DHT22;2225;53.568;13.266;2023-05-10T00:23:31;15.70;61.90
4425;DHT22;2225;53.568;13.266;2023-05-10T00:25:58;15.70;62.00
4425;DHT22;2225;53.568;13.266;2023-05-10T00:28:27;15.70;62.00
4425;DHT22;2225;53.568;13.266;2023-05-10T00:30:55;15.70;62.30
4425;DHT22;2225;53.568;13.266;2023-05-10T00:33:22;15.70;62.20
4425;DHT22;2225;53.568;13.266;2023-05-10T00:35:49;15.70;62.40
4425;DHT22;2225;53.568;13.266;2023-05-10T00:38:16;15.60;62.80
4425;DHT22;2225;53.568;13.266;2023-05-10T00:40:43;15.60;62.90
4425;DHT22;2225;53.568;13.266;2023-05-10T00:43:18;15.60;63.00
4425;DHT22;2225;53.568;13.266;2023-05-10T00:45:46;15.50;63.10
4425;DHT22;2225;53.568;13.266;2023-05-10T00:48:13;15.50;63.30
4425;DHT22;2225;53.568;13.266;2023-05-10T00:50:40;15.50;63.50
4425;DHT22;2225;53.568;13.266;2023-05-10T00:53:08;15.40;63.80
4425;DHT22;2225;53.568;13.266;2023-05-10T00:55:35;15.40;64.00
4425;DHT22;2225;53.568;13.266;2023-05-10T00:58:03;15.30;64.40
4425;DHT22;2225;53.568;13.266;2023-05-10T01:00:31;15.30;64.40
4425;DHT22;2225;53.568;13.266;2023-05-10T01:02:59;15.20;64.50
4425;DHT22;2225;53.568;13.266;2023-05-10T01:05:27;15.20;64.60
4425;DHT22;2225;53.568;13.266;2023-05-10T01:07:54;15.20;65.90
4425;DHT22;2225;53.568;13.266;2023-05-10T01:10:21;15.10;65.50
4425;DHT22;2225;53.568;13.266;2023-05-10T01:12:48;15.10;65.50
4425;DHT22;2225;53.568;13.266;2023-05-10T01:15:16;15.00;65.60
4425;DHT22;2225;53.568;13.266;2023-05-10T01:17:45;15.00;65.80
4425;DHT22;2225;53.568;13.266;2023-05-10T01:20:12;14.90;66.10
4425;DHT22;2225;53.568;13.266;2023-05-10T01:26:23;14.90;66.70
4425;DHT22;2225;53.568;13.266;2023-05-10T01:32:27;14.70;67.40
4425;DHT22;2225;53.568;13.266;2023-05-10T01:35:18;14.70;67.60
4425;DHT22;2225;53.568;13.266;2023-05-10T01:41:03;14.70;68.10
4425;DHT22;2225;53.568;13.266;2023-05-10T01:43:55;14.70;68.10
4425;DHT22;2225;53.568;13.266;2023-05-10T01:46:38;14.60;68.30
4425;DHT22;2225;53.568;13.266;2023-05-10T01:49:13;14.60;68.60
4425;DHT22;2225;53.568;13.266;2023-05-10T01:51:49;14.50;68.70
4425;DHT22;2225;53.568;13.266;2023-05-10T01:54:22;14.50;68.90
4425;DHT22;2225;53.568;13.266;2023-05-10T01:56:56;14.50;69.20
4425;DHT22;2225;53.568;13.266;2023-05-10T01:59:30;14.40;69.20
4425;DHT22;2225;53.568;13.266;2023-05-10T02:02:04;14.40;69.50
4425;DHT22;2225;53.568;13.266;2023-05-10T02:04:35;14.30;69.70
4425;DHT22;2225;53.568;13.266;2023-05-10T02:07:04;14.30;69.70
4425;DHT22;2225;53.568;13.266;2023-05-10T02:09:33;14.30;69.80
4425;DHT22;2225;53.568;13.266;2023-05-10T02:12:02;14.30;70.30
4425;DHT22;2225;53.568;13.266;2023-05-10T02:14:34;14.20;70.40
4425;DHT22;2225;53.568;13.266;2023-05-10T02:17:04;14.20;70.30
4425;DHT22;2225;53.568;13.266;2023-05-10T02:19:32;14.20;70.40
4425;DHT22;2225;53.568;13.266;2023-05-10T02:22:01;14.20;70.20
4425;DHT22;2225;53.568;13.266;2023-05-10T02:24:29;14.10;70.40
4425;DHT22;2225;53.568;13.266;2023-05-10T02:26:57;14.10;70.20
4425;DHT22;2225;53.568;13.266;2023-05-10T02:29:25;14.10;70.50
4425;DHT22;2225;53.568;13.266;2023-05-10T02:31:54;14.10;70.90
4425;DHT22;2225;53.568;13.266;2023-05-10T02:34:23;14.10;71.20
4425;DHT22;2225;53.568;13.266;2023-05-10T02:36:53;14.10;70.80
4425;DHT22;2225;53.568;13.266;2023-05-10T02:39:21;14.00;71.20
4425;DHT22;2225;53.568;13.266;2023-05-10T02:41:50;14.00;71.90
4425;DHT22;2225;53.568;13.266;2023-05-10T02:44:18;14.00;72.00
4425;DHT22;2225;53.568;13.266;2023-05-10T02:46:46;13.90;72.10
4425;DHT22;2225;53.568;13.266;2023-05-10T02:49:15;13.90;72.40
4425;DHT22;2225;53.568;13.266;2023-05-10T02:51:44;13.80;72.70
4425;DHT22;2225;53.568;13.266;2023-05-10T02:54:24;13.80;72.80
4425;DHT22;2225;53.568;13.266;2023-05-10T02:56:57;13.70;73.40
4425;DHT22;2225;53.568;13.266;2023-05-10T02:59:26;13.70;73.60
4425;DHT22;2225;53.568;13.266;2023-05-10T03:01:53;13.70;73.50
4425;DHT22;2225;53.568;13.266;2023-05-10T03:04:20;13.60;73.70
4425;DHT22;2225;53.568;13.266;2023-05-10T03:06:48;13.60;73.80
4425;DHT22;2225;53.568;13.266;2023-05-10T03:09:15;13.60;74.10
4425;DHT22;2225;53.568;13.266;2023-05-10T03:14:49;13.60;74.70
4425;DHT22;2225;53.568;13.266;2023-05-10T03:17:35;13.50;74.50
4425;DHT22;2225;53.568;13.266;2023-05-10T03:20:21;13.50;74.90
4425;DHT22;2225;53.568;13.266;2023-05-10T03:22:55;13.50;75.10
4425;DHT22;2225;53.568;13.266;2023-05-10T03:25:24;13.50;75.00
4425;DHT22;2225;53.568;13.266;2023-05-10T03:27:52;13.50;74.80
4425;DHT22;2225;53.568;13.266;2023-05-10T03:30:21;13.40;75.40
4425;DHT22;2225;53.568;13.266;2023-05-10T03:32:48;13.40;75.40
4425;DHT22;2225;53.568;13.266;2023-05-10T03:35:17;13.40;75.60
4425;DHT22;2225;53.568;13.266;2023-05-10T03:37:44;13.40;75.70
4425;DHT22;2225;53.568;13.266;2023-05-10T03:40:11;13.40;75.50
4425;DHT22;2225;53.568;13.266;2023-05-10T03:42:40;13.30;75.50
4425;DHT22;2225;53.568;13.266;2023-05-10T03:45:08;13.30;75.70
4425;DHT22;2225;53.568;13.266;2023-05-10T03:47:36;13.30;76.10
4425;DHT22;2225;53.568;13.266;2023-05-10T03:50:03;13.30;75.90
4425;DHT22;2225;53.568;13.266;2023-05-10T03:52:32;13.30;75.90
4425;DHT22;2225;53.568;13.266;2023-05-10T03:54:59;13.30;76.10
4425;DHT22;2225;53.568;13.266;2023-05-10T03:57:26;13.30;76.30
4425;DHT22;2225;53.568;13.266;2023-05-10T03:59:53;13.30;76.50
4425;DHT22;2225;53.568;13.266;2023-05-10T04:02:19;13.30;76.50
4425;DHT22;2225;53.568;13.266;2023-05-10T04:04:47;13.30;76.40
4425;DHT22;2225;53.568;13.266;2023-05-10T04:07:14;13.30;77.00
4425;DHT22;2225;53.568;13.266;2023-05-10T04:09:41;13.30;77.20
4425;DHT22;2225;53.568;13.266;2023-05-10T04:12:08;13.40;77.20
4425;DHT22;2225;53.568;13.266;2023-05-10T04:14:36;13.50;77.00
4425;DHT22;2225;53.568;13.266;2023-05-10T04:17:03;13.60;76.90
4425;DHT22;2225;53.568;13.266;2023-05-10T04:19:31;13.80;76.40
4425;DHT22;2225;53.568;13.266;2023-05-10T04:21:58;13.90;75.60
4425;DHT22;2225;53.568;13.266;2023-05-10T04:24:25;14.10;75.10
4425;DHT22;2225;53.568;13.266;2023-05-10T04:26:54;14.20;74.80
4425;DHT22;2225;53.568;13.266;2023-05-10T04:29:23;14.30;74.40
4425;DHT22;2225;53.568;13.266;2023-05-10T04:31:50;14.30;73.70
4425;DHT22;2225;53.568;13.266;2023-05-10T04:34:17;14.40;73.60
4425;DHT22;2225;53.568;13.266;2023-05-10T04:36:44;14.50;73.40
4425;DHT22;2225;53.568;13.266;2023-05-10T04:39:11;14.50;73.00
4425;DHT22;2225;53.568;13.266;2023-05-10T04:41:40;14.60;73.30
4425;DHT22;2225;53.568;13.266;2023-05-10T04:44:07;14.60;73.00
4425;DHT22;2225;53.568;13.266;2023-05-10T04:46:33;14.60;73.10
4425;DHT22;2225;53.568;13.266;2023-05-10T04:49:00;14.60;72.80
4425;DHT22;2225;53.568;13.266;2023-05-10T04:51:28;14.70;72.90
4425;DHT22;2225;53.568;13.266;2023-05-10T04:53:54;14.70;72.80
4425;DHT22;2225;53.568;13.266;2023-05-10T04:56:31;14.70;72.60
4425;DHT22;2225;53.568;13.266;2023-05-10T04:58:58;14.70;72.50
4425;DHT22;2225;53.568;13.266;2023-05-10T05:01:25;14.80;72.50
4425;DHT22;2225;53.568;13.266;2023-05-10T05:03:52;14.80;72.60
4425;DHT22;2225;53.568;13.266;2023-05-10T05:06:20;14.90;72.70
4425;DHT22;2225;53.568;13.266;2023-05-10T05:08:51;14.90;72.40
4425;DHT22;2225;53.568;13.266;2023-05-10T05:11:18;15.00;72.10
4425;DHT22;2225;53.568;13.266;2023-05-10T05:13:45;15.00;72.10
4425;DHT22;2225;53.568;13.266;2023-05-10T05:16:12;15.10;72.00
4425;DHT22;2225;53.568;13.266;2023-05-10T05:18:39;15.10;71.70
4425;DHT22;2225;53.568;13.266;2023-05-10T05:21:16;15.10;71.60
4425;DHT22;2225;53.568;13.266;2023-05-10T05:23:43;15.20;72.00
4425;DHT22;2225;53.568;13.266;2023-05-10T05:26:10;15.30;71.30
4425;DHT22;2225;53.568;13.266;2023-05-10T05:28:38;15.30;71.60
4425;DHT22;2225;53.568;13.266;2023-05-10T05:31:08;15.40;71.60
4425;DHT22;2225;53.568;13.266;2023-05-10T05:33:36;15.40;70.90
4425;DHT22;2225;53.568;13.266;2023-05-10T05:36:04;15.50;71.10
4425;DHT22;2225;53.568;13.266;2023-05-10T05:38:32;15.50;70.40
4425;DHT22;2225;53.568;13.266;2023-05-10T05:40:59;15.50;70.90
4425;DHT22;2225;53.568;13.266;2023-05-10T05:43:26;15.60;70.30
4425;DHT22;2225;53.568;13.266;2023-05-10T05:45:53;15.60;70.40
4425;DHT22;2225;53.568;13.266;2023-05-10T05:48:20;15.70;70.30
4425;DHT22;2225;53.568;13.266;2023-05-10T05:50:47;15.70;70.00
4425;DHT22;2225;53.568;13.266;2023-05-10T05:53:14;15.70;69.80
4425;DHT22;2225;53.568;13.266;2023-05-10T05:55:52;15.80;69.80
4425;DHT22;2225;53.568;13.266;2023-05-10T05:58:24;15.90;69.10
4425;DHT22;2225;53.568;13.266;2023-05-10T06:00:51;15.90;68.80
4425;DHT22;2225;53.568;13.266;2023-05-10T06:03:19;15.90;68.80
4425;DHT22;2225;53.568;13.266;2023-05-10T06:05:46;16.00;68.20
4425;DHT22;2225;53.568;13.266;2023-05-10T06:08:13;16.10;68.40
4425;DHT22;2225;53.568;13.266;2023-05-10T06:10:40;16.10;69.10
4425;DHT22;2225;53.568;13.266;2023-05-10T06:13:07;16.20;68.30
4425;DHT22;2225;53.568;13.266;2023-05-10T06:15:34;16.20;68.00
4425;DHT22;2225;53.568;13.266;2023-05-10T06:18:01;16.30;67.60
4425;DHT22;2225;53.568;13.266;2023-05-10T06:20:28;16.40;67.80
4425;DHT22;2225;53.568;13.266;2023-05-10T06:22:54;16.40;67.50
4425;DHT22;2225;53.568;13.266;2023-05-10T06:25:21;16.50;67.20
4425;DHT22;2225;53.568;13.266;2023-05-10T06:27:48;16.60;67.30
4425;DHT22;2225;53.568;13.266;2023-05-10T06:30:19;16.70;66.40
4425;DHT22;2225;53.568;13.266;2023-05-10T06:32:46;16.70;66.50
4425;DHT22;2225;53.568;13.266;2023-05-10T06:35:13;16.80;66.40
4425;DHT22;2225;53.568;13.266;2023-05-10T06:37:40;16.80;66.00
4425;DHT22;2225;53.568;13.266;2023-05-10T06:40:08;16.90;66.30
4425;DHT22;2225;53.568;13.266;2023-05-10T06:42:35;17.00;66.60
4425;DHT22;2225;53.568;13.266;2023-05-10T06:45:03;17.00;66.70
4425;DHT22;2225;53.568;13.266;2023-05-10T06:47:30;17.10;65.90
4425;DHT22;2225;53.568;13.266;2023-05-10T06:49:57;17.20;65.50
4425;DHT22;2225;53.568;13.266;2023-05-10T06:52:24;17.30;65.60
4425;DHT22;2225;53.568;13.266;2023-05-10T06:54:51;17.40;66.00
4425;DHT22;2225;53.568;13.266;2023-05-10T06:57:17;17.40;65.40
4425;DHT22;2225;53.568;13.266;2023-05-10T06:59:56;17.50;65.00
4425;DHT22;2225;53.568;13.266;2023-05-10T07:02:23;17.50;65.10
4425;DHT22;2225;53.568;13.266;2023-05-10T07:04:50;17.60;65.10
4425;DHT22;2225;53.568;13.266;2023-05-10T07:07:18;17.60;65.00
4425;DHT22;2225;53.568;13.266;2023-05-10T07:09:45;17.70;65.30
4425;DHT22;2225;53.568;13.266;2023-05-10T07:12:12;17.70;65.20
4425;DHT22;2225;53.568;13.266;2023-05-10T07:14:41;17.80;65.20
4425;DHT22;2225;53.568;13.266;2023-05-10T07:17:09;17.90;65.70
4425;DHT22;2225;53.568;13.266;2023-05-10T07:19:36;18.00;64.70
4425;DHT22;2225;53.568;13.266;2023-05-10T07:22:03;18.00;64.50
4425;DHT22;2225;53.568;13.266;2023-05-10T07:24:30;18.10;64.90
4425;DHT22;2225;53.568;13.266;2023-05-10T07:26:57;18.20;64.60
4425;DHT22;2225;53.568;13.266;2023-05-10T07:29:25;18.30;65.10
4425;DHT22;2225;53.568;13.266;2023-05-10T07:31:51;18.40;64.50
4425;DHT22;2225;53.568;13.266;2023-05-10T07:34:20;18.50;63.90
4425;DHT22;2225;53.568;13.266;2023-05-10T07:36:47;18.50;63.50
4425;DHT22;2225;53.568;13.266;2023-05-10T07:39:14;18.60;63.60
4425;DHT22;2225;53.568;13.266;2023-05-10T07:41:52;18.70;62.30
4425;DHT22;2225;53.568;13.266;2023-05-10T07:44:19;18.80;63.10
4425;DHT22;2225;53.568;13.266;2023-05-10T07:46:47;18.90;61.60
4425;DHT22;2225;53.568;13.266;2023-05-10T07:49:14;18.90;61.50
4425;DHT22;2225;53.568;13.266;2023-05-10T07:51:41;19.00;61.60
4425;DHT22;2225;53.568;13.266;2023-05-10T07:54:09;19.00;62.70
4425;DHT22;2225;53.568;13.266;2023-05-10T07:56:35;19.00;61.20
4425;DHT22;2225;53.568;13.266;2023-05-10T07:59:03;19.10;61.40
4425;DHT22;2225;53.568;13.266;2023-05-10T08:01:33;19.10;62.50
4425;DHT22;2225;53.568;13.266;2023-05-10T08:04:01;19.20;61.80
4425;DHT22;2225;53.568;13.266;2023-05-10T08:06:28;19.30;62.50
4425;DHT22;2225;53.568;13.266;2023-05-10T08:08:56;19.40;62.30
4425;DHT22;2225;53.568;13.266;2023-05-10T08:11:23;19.40;62.30
4425;DHT22;2225;53.568;13.266;2023-05-10T08:13:51;19.50;61.50
4425;DHT22;2225;53.568;13.266;2023-05-10T08:16:18;19.60;61.70
4425;DHT22;2225;53.568;13.266;2023-05-10T08:18:46;19.70;61.60
4425;DHT22;2225;53.568;13.266;2023-05-10T08:21:14;19.70;62.10
4425;DHT22;2225;53.568;13.266;2023-05-10T08:23:41;19.80;60.80
4425;DHT22;2225;53.568;13.266;2023-05-10T08:26:10;19.90;61.60
4425;DHT22;2225;53.568;13.266;2023-05-10T08:28:37;20.00;61.60
4425;DHT22;2225;53.568;13.266;2023-05-10T08:31:04;20.10;60.60
4425;DHT22;2225;53.568;13.266;2023-05-10T08:33:31;20.10;59.80
4425;DHT22;2225;53.568;13.266;2023-05-10T08:35:58;20.20;59.90
4425;DHT22;2225;53.568;13.266;2023-05-10T08:38:25;20.20;60.20
4425;DHT22;2225;53.568;13.266;2023-05-10T08:40:54;20.20;59.70
4425;DHT22;2225;53.568;13.266;2023-05-10T08:43:29;20.30;59.30
4425;DHT22;2225;53.568;13.266;2023-05-10T08:46:00;20.40;59.90
4425;DHT22;2225;53.568;13.266;2023-05-10T08:48:29;20.50;60.20
4425;DHT22;2225;53.568;13.266;2023-05-10T08:50:58;20.60;59.60
4425;DHT22;2225;53.568;13.266;2023-05-10T08:53:27;20.60;59.30
4425;DHT22;2225;53.568;13.266;2023-05-10T08:55:55;20.60;58.30
4425;DHT22;2225;53.568;13.266;2023-05-10T08:58:22;20.60;58.70
4425;DHT22;2225;53.568;13.266;2023-05-10T09:00:49;20.70;58.10
4425;DHT22;2225;53.568;13.266;2023-05-10T09:03:19;20.70;58.40
4425;DHT22;2225;53.568;13.266;2023-05-10T09:05:47;20.80;57.90
4425;DHT22;2225;53.568;13.266;2023-05-10T09:08:15;20.90;57.80
4425;DHT22;2225;53.568;13.266;2023-05-10T09:10:46;21.00;57.80
4425;DHT22;2225;53.568;13.266;2023-05-10T09:13:15;21.10;57.80
4425;DHT22;2225;53.568;13.266;2023-05-10T09:15:43;21.20;57.80
4425;DHT22;2225;53.568;13.266;2023-05-10T09:18:11;21.20;57.40
4425;DHT22;2225;53.568;13.266;2023-05-10T09:20:38;21.40;57.00
4425;DHT22;2225;53.568;13.266;2023-05-10T09:23:06;21.40;55.90
4425;DHT22;2225;53.568;13.266;2023-05-10T09:25:33;21.50;56.00
4425;DHT22;2225;53.568;13.266;2023-05-10T09:28:00;21.60;56.50
4425;DHT22;2225;53.568;13.266;2023-05-10T09:30:29;21.70;56.00
4425;DHT22;2225;53.568;13.266;2023-05-10T09:32:58;21.80;55.90
4425;DHT22;2225;53.568;13.266;2023-05-10T09:35:29;21.90;55.80
4425;DHT22;2225;53.568;13.266;2023-05-10T09:38:02;21.90;55.20
4425;DHT22;2225;53.568;13.266;2023-05-10T09:40:31;22.00;54.60
4425;DHT22;2225;53.568;13.266;2023-05-10T09:43:08;22.10;55.70
4425;DHT22;2225;53.568;13.266;2023-05-10T09:45:37;22.20;55.00
4425;DHT22;2225;53.568;13.266;2023-05-10T09:48:05;22.20;54.60
4425;DHT22;2225;53.568;13.266;2023-05-10T09:50:32;22.20;54.50
4425;DHT22;2225;53.568;13.266;2023-05-10T09:53:02;22.30;54.60
4425;DHT22;2225;53.568;13.266;2023-05-10T09:55:39;22.40;55.50
4425;DHT22;2225;53.568;13.266;2023-05-10T09:58:07;22.50;54.50
4425;DHT22;2225;53.568;13.266;2023-05-10T10:00:39;22.50;53.40
4425;DHT22;2225;53.568;13.266;2023-05-10T10:03:16;22.50;53.50
4425;DHT22;2225;53.568;13.266;2023-05-10T10:05:44;22.50;53.60
4425;DHT22;2225;53.568;13.266;2023-05-10T10:08:13;22.60;53.90
4425;DHT22;2225;53.568;13.266;2023-05-10T10:10:40;22.60;52.60
4425;DHT22;2225;53.568;13.266;2023-05-10T10:13:08;22.60;52.90
4425;DHT22;2225;53.568;13.266;2023-05-10T10:15:35;22.70;52.40
4425;DHT22;2225;53.568;13.266;2023-05-10T10:18:03;22.70;53.30
4425;DHT22;2225;53.568;13.266;2023-05-10T10:20:33;22.80;52.80
4425;DHT22;2225;53.568;13.266;2023-05-10T10:23:00;22.80;52.90
4425;DHT22;2225;53.568;13.266;2023-05-10T10:25:27;23.00;53.20
4425;DHT22;2225;53.568;13.266;2023-05-10T10:30:40;23.00;52.10
4425;DHT22;2225;53.568;13.266;2023-05-10T10:33:30;23.10;52.00
4425;DHT22;2225;53.568;13.266;2023-05-10T10:36:03;23.30;52.20
4425;DHT22;2225;53.568;13.266;2023-05-10T10:41:37;23.40;51.40
4425;DHT22;2225;53.568;13.266;2023-05-10T10:49:43;23.60;50.90
4425;DHT22;2225;53.568;13.266;2023-05-10T10:54:58;23.60;51.10
4425;DHT22;2225;53.568;13.266;2023-05-10T11:00:19;23.60;50.10
4425;DHT22;2225;53.568;13.266;2023-05-10T11:03:10;23.60;50.50
4425;DHT22;2225;53.568;13.266;2023-05-10T11:05:48;23.60;50.10
4425;DHT22;2225;53.568;13.266;2023-05-10T11:08:29;23.60;50.80
4425;DHT22;2225;53.568;13.266;2023-05-10T11:13:43;23.60;50.80
4425;DHT22;2225;53.568;13.266;2023-05-10T11:16:18;23.70;50.50
4425;DHT22;2225;53.568;13.266;2023-05-10T11:19:04;23.80;50.70
4425;DHT22;2225;53.568;13.266;2023-05-10T11:21:33;24.00;50.30
4425;DHT22;2225;53.568;13.266;2023-05-10T11:24:01;24.00;49.90
4425;DHT22;2225;53.568;13.266;2023-05-10T11:26:35;24.00;49.60
4425;DHT22;2225;53.568;13.266;2023-05-10T11:29:02;24.00;50.40
4425;DHT22;2225;53.568;13.266;2023-05-10T11:31:31;24.10;50.60
4425;DHT22;2225;53.568;13.266;2023-05-10T11:33:59;24.20;50.30
4425;DHT22;2225;53.568;13.266;2023-05-10T11:36:32;24.30;49.60
4425;DHT22;2225;53.568;13.266;2023-05-10T11:39:00;24.40;50.10
4425;DHT22;2225;53.568;13.266;2023-05-10T11:41:28;24.40;49.00
4425;DHT22;2225;53.568;13.266;2023-05-10T11:43:57;24.50;49.40
4425;DHT22;2225;53.568;13.266;2023-05-10T11:46:26;24.60;49.00
4425;DHT22;2225;53.568;13.266;2023-05-10T11:48:57;24.70;47.80
4425;DHT22;2225;53.568;13.266;2023-05-10T11:51:28;24.80;47.50
4425;DHT22;2225;53.568;13.266;2023-05-10T11:53:56;24.90;46.90
4425;DHT22;2225;53.568;13.266;2023-05-10T11:56:24;24.80;46.40
4425;DHT22;2225;53.568;13.266;2023-05-10T11:58:55;24.80;46.10
4425;DHT22;2225;53.568;13.266;2023-05-10T12:01:27;24.80;46.30
4425;DHT22;2225;53.568;13.266;2023-05-10T12:03:56;24.80;46.10
4425;DHT22;2225;53.568;13.266;2023-05-10T12:06:27;24.70;46.10
4425;DHT22;2225;53.568;13.266;2023-05-10T12:08:59;24.80;46.40
4425;DHT22;2225;53.568;13.266;2023-05-10T12:11:27;24.80;47.10
4425;DHT22;2225;53.568;13.266;2023-05-10T12:13:55;24.80;46.00
4425;DHT22;2225;53.568;13.266;2023-05-10T12:16:25;24.80;46.10
4425;DHT22;2225;53.568;13.266;2023-05-10T12:18:59;24.80;45.70
4425;DHT22;2225;53.568;13.266;2023-05-10T12:21:28;24.70;46.30
4425;DHT22;2225;53.568;13.266;2023-05-10T12:24:01;24.80;46.50
4425;DHT22;2225;53.568;13.266;2023-05-10T12:26:29;24.80;45.90
4425;DHT22;2225;53.568;13.266;2023-05-10T12:29:16;24.90;46.20
4425;DHT22;2225;53.568;13.266;2023-05-10T12:31:54;24.90;45.90
4425;DHT22;2225;53.568;13.266;2023-05-10T12:34:31;25.00;45.70
4425;DHT22;2225;53.568;13.266;2023-05-10T12:36:58;25.00;45.90
4425;DHT22;2225;53.568;13.266;2023-05-10T12:39:26;24.90;45.70
4425;DHT22;2225;53.568;13.266;2023-05-10T12:42:05;24.90;45.30
4425;DHT22;2225;53.568;13.266;2023-05-10T12:44:32;25.00;45.40
4425;DHT22;2225;53.568;13.266;2023-05-10T12:46:59;25.00;45.50
4425;DHT22;2225;53.568;13.266;2023-05-10T12:49:26;25.10;46.00
4425;DHT22;2225;53.568;13.266;2023-05-10T12:51:53;25.00;45.30
4425;DHT22;2225;53.568;13.266;2023-05-10T12:54:20;25.00;45.30
4425;DHT22;2225;53.568;13.266;2023-05-10T12:56:47;25.00;46.10
4425;DHT22;2225;53.568;13.266;2023-05-10T12:59:13;25.10;46.10
4425;DHT22;2225;53.568;13.266;2023-05-10T13:01:40;25.20;46.00
4425;DHT22;2225;53.568;13.266;2023-05-10T13:04:07;25.20;46.00
4425;DHT22;2225;53.568;13.266;2023-05-10T13:06:34;25.20;46.20
4425;DHT22;2225;53.568;13.266;2023-05-10T13:09:01;25.30;46.80
4425;DHT22;2225;53.568;13.266;2023-05-10T13:11:28;25.30;47.10
4425;DHT22;2225;53.568;13.266;2023-05-10T13:13:55;25.40;47.10
4425;DHT22;2225;53.568;13.266;2023-05-10T13:16:22;25.40;46.70
4425;DHT22;2225;53.568;13.266;2023-05-10T13:18:49;25.40;46.30
4425;DHT22;2225;53.568;13.266;2023-05-10T13:21:17;25.30;46.30
4425;DHT22;2225;53.568;13.266;2023-05-10T13:23:43;25.30;46.30
4425;DHT22;2225;53.568;13.266;2023-05-10T13:26:10;25.30;46.40
4425;DHT22;2225;53.568;13.266;2023-05-10T13:28:37;25.30;47.20
4425;DHT22;2225;53.568;13.266;2023-05-10T13:31:05;25.40;47.20
4425;DHT22;2225;53.568;13.266;2023-05-10T13:33:32;25.40;47.00
4425;DHT22;2225;53.568;13.266;2023-05-10T13:35:59;25.50;46.50
4425;DHT22;2225;53.568;13.266;2023-05-10T13:38:25;25.50;46.00
4425;DHT22;2225;53.568;13.266;2023-05-10T13:40:52;25.50;45.80
4425;DHT22;2225;53.568;13.266;2023-05-10T13:43:19;25.50;46.00
4425;DHT22;2225;53.568;13.266;2023-05-10T13:45:46;25.50;45.90
4425;DHT22;2225;53.568;13.266;2023-05-10T13:48:13;25.50;46.40
4425;DHT22;2225;53.568;13.266;2023-05-10T13:50:40;25.50;46.00
4425;DHT22;2225;53.568;13.266;2023-05-10T13:53:07;25.60;46.00
4425;DHT22;2225;53.568;13.266;2023-05-10T13:55:34;25.60;46.30
4425;DHT22;2225;53.568;13.266;2023-05-10T13:58:01;25.70;46.10
4425;DHT22;2225;53.568;13.266;2023-05-10T14:00:28;25.70;45.70
4425;DHT22;2225;53.568;13.266;2023-05-10T14:02:55;25.80;45.40
4425;DHT22;2225;53.568;13.266;2023-05-10T14:05:22;25.80;45.60
4425;DHT22;2225;53.568;13.266;2023-05-10T14:07:52;25.90;46.00
4425;DHT22;2225;53.568;13.266;2023-05-10T14:10:18;25.90;46.10
4425;DHT22;2225;53.568;13.266;2023-05-10T14:12:45;25.90;45.90
4425;DHT22;2225;53.568;13.266;2023-05-10T14:15:12;26.00;45.70
4425;DHT22;2225;53.568;13.266;2023-05-10T14:17:39;25.90;45.20
4425;DHT22;2225;53.568;13.266;2023-05-10T14:20:07;25.90;45.90
4425;DHT22;2225;53.568;13.266;2023-05-10T14:22:34;25.90;45.60
4425;DHT22;2225;53.568;13.266;2023-05-10T14:25:02;26.00;45.90
4425;DHT22;2225;53.568;13.266;2023-05-10T14:27:29;25.90;45.80
4425;DHT22;2225;53.568;13.266;2023-05-10T14:29:56;26.00;45.70
4425;DHT22;2225;53.568;13.266;2023-05-10T14:32:23;26.00;45.70
4425;DHT22;2225;53.568;13.266;2023-05-10T14:34:50;26.10;45.70
4425;DHT22;2225;53.568;13.266;2023-05-10T14:37:17;26.10;45.40
4425;DHT22;2225;53.568;13.266;2023-05-10T14:39:44;26.10;45.30
4425;DHT22;2225;53.568;13.266;2023-05-10T14:42:11;26.10;45.50
4425;DHT22;2225;53.568;13.266;2023-05-10T14:44:38;26.00;45.20
4425;DHT22;2225;53.568;13.266;2023-05-10T14:47:06;26.00;44.90
4425;DHT22;2225;53.568;13.266;2023-05-10T14:49:34;26.00;45.50
4425;DHT22;2225;53.568;13.266;2023-05-10T14:52:01;26.10;45.80
4425;DHT22;2225;53.568;13.266;2023-05-10T14:54:28;26.20;46.00
4425;DHT22;2225;53.568;13.266;2023-05-10T14:56:54;26.20;45.20
4425;DHT22;2225;53.568;13.266;2023-05-10T14:59:21;26.30;45.50
4425;DHT22;2225;53.568;13.266;2023-05-10T15:01:48;26.30;44.90
4425;DHT22;2225;53.568;13.266;2023-05-10T15:04:16;26.40;45.10
4425;DHT22;2225;53.568;13.266;2023-05-10T15:06:43;26.40;44.80
4425;DHT22;2225;53.568;13.266;2023-05-10T15:09:10;26.50;44.80
4425;DHT22;2225;53.568;13.266;2023-05-10T15:11:37;26.50;44.80
4425;DHT22;2225;53.568;13.266;2023-05-10T15:14:04;26.60;45.10
4425;DHT22;2225;53.568;13.266;2023-05-10T15:16:31;26.60;44.80
4425;DHT22;2225;53.568;13.266;2023-05-10T15:19:01;26.70;44.50
4425;DHT22;2225;53.568;13.266;2023-05-10T15:21:28;26.70;44.20
4425;DHT22;2225;53.568;13.266;2023-05-10T15:23:57;26.70;44.10
4425;DHT22;2225;53.568;13.266;2023-05-10T15:26:24;26.70;44.10
4425;DHT22;2225;53.568;13.266;2023-05-10T15:28:52;26.80;44.40
4425;DHT22;2225;53.568;13.266;2023-05-10T15:31:19;26.80;44.60
4425;DHT22;2225;53.568;13.266;2023-05-10T15:33:46;26.80;44.60
4425;DHT22;2225;53.568;13.266;2023-05-10T15:36:13;26.80;44.40
4425;DHT22;2225;53.568;13.266;2023-05-10T15:38:40;26.80;44.30
4425;DHT22;2225;53.568;13.266;2023-05-10T15:41:07;26.80;44.20
4425;DHT22;2225;53.568;13.266;2023-05-10T15:43:34;26.80;44.40
4425;DHT22;2225;53.568;13.266;2023-05-10T15:46:01;26.80;44.10
4425;DHT22;2225;53.568;13.266;2023-05-10T15:48:28;26.80;44.30
4425;DHT22;2225;53.568;13.266;2023-05-10T15:50:57;26.80;43.50
4425;DHT22;2225;53.568;13.266;2023-05-10T15:53:24;26.80;44.00
4425;DHT22;2225;53.568;13.266;2023-05-10T15:55:51;26.80;44.00
4425;DHT22;2225;53.568;13.266;2023-05-10T15:58:18;26.70;44.10
4425;DHT22;2225;53.568;13.266;2023-05-10T16:00:45;26.60;43.80
4425;DHT22;2225;53.568;13.266;2023-05-10T16:03:12;26.60;44.10
4425;DHT22;2225;53.568;13.266;2023-05-10T16:05:39;26.50;44.70
4425;DHT22;2225;53.568;13.266;2023-05-10T16:08:06;26.60;44.70
4425;DHT22;2225;53.568;13.266;2023-05-10T16:10:33;26.60;44.80
4425;DHT22;2225;53.568;13.266;2023-05-10T16:13:00;26.70;44.80
4425;DHT22;2225;53.568;13.266;2023-05-10T16:15:29;26.70;44.40
4425;DHT22;2225;53.568;13.266;2023-05-10T16:17:56;26.70;44.40
4425;DHT22;2225;53.568;13.266;2023-05-10T16:20:23;26.70;44.60
4425;DHT22;2225;53.568;13.266;2023-05-10T16:22:50;26.70;44.70
4425;DHT22;2225;53.568;13.266;2023-05-10T16:25:17;26.80;45.00
4425;DHT22;2225;53.568;13.266;2023-05-10T16:27:44;26.80;45.40